Time;durP1;ratioP1;P1;durP2;ratioP2;P2;SDS_P1;SDS_P2;PMS_P1;PMS_P2;Temp;Humidity;BMP_temperature;BMP_pressure;BME280_temperature;BME280_humidity;BME280_pressure;Samples;Min_cycle;Max_cycle;Signal;HPM_P1;HPM_P2
2023/05/22 00:01:13;;;;;;;8.35;3.97;;;14.60;99.90;;;;;;4162500;28;20143;-60
2023/05/22 00:03:14;;;;;;;6.63;3.58;;;14.50;99.90;;;;;;4162869;28;20087;-61
2023/05/22 00:05:19;;;;;;;6.22;3.60;;;14.40;99.90;;;;;;4160568;28;20056;-71
2023/05/22 00:07:21;;;;;;;8.85;3.65;;;14.40;99.90;;;;;;4162845;28;20052;-72
2023/05/22 00:09:25;;;;;;;5.70;3.72;;;14.40;99.90;;;;;;4161311;28;20445;-58
2023/05/22 00:11:26;;;;;;;6.03;3.50;;;14.40;99.90;;;;;;4162326;28;20041;-73
2023/05/22 00:13:27;;;;;;;7.20;3.60;;;14.30;99.90;;;;;;4162728;28;20075;-58
2023/05/22 00:15:28;;;;;;;7.40;4.10;;;14.30;99.90;;;;;;4161272;28;20033;-75
2023/05/22 00:17:29;;;;;;;6.88;4.43;;;14.30;99.90;;;;;;4162802;28;20029;-74
2023/05/22 00:19:31;;;;;;;10.30;4.40;;;14.20;99.90;;;;;;4160802;28;20501;-61
2023/05/22 00:21:33;;;;;;;5.82;4.75;;;14.20;99.90;;;;;;4162443;28;20490;-61
2023/05/22 00:23:34;;;;;;;9.85;4.18;;;14.10;99.90;;;;;;4161963;28;20044;-60
2023/05/22 00:25:36;;;;;;;6.50;4.00;;;14.10;99.90;;;;;;4159131;28;20068;-61
2023/05/22 00:27:37;;;;;;;9.20;4.78;;;14.10;99.90;;;;;;4160191;28;20107;-61
2023/05/22 00:29:38;;;;;;;6.40;3.72;;;14.00;99.90;;;;;;4162686;28;20045;-61
2023/05/22 00:31:39;;;;;;;8.05;4.45;;;14.00;99.90;;;;;;4160246;28;20095;-61
2023/05/22 00:33:40;;;;;;;5.80;4.65;;;14.00;99.90;;;;;;4162805;28;20553;-72
2023/05/22 00:35:42;;;;;;;5.80;4.57;;;14.00;99.90;;;;;;4161451;28;20033;-61
2023/05/22 00:37:44;;;;;;;8.65;4.30;;;14.00;99.90;;;;;;4144591;28;20038;-61
2023/05/22 00:39:46;;;;;;;5.60;4.10;;;14.00;99.90;;;;;;4161516;28;20099;-61
2023/05/22 00:41:47;;;;;;;10.38;4.95;;;14.00;99.90;;;;;;4161601;28;20372;-61
2023/05/22 00:43:49;;;;;;;8.23;5.57;;;13.90;99.90;;;;;;4161586;28;20034;-60
2023/05/22 00:45:51;;;;;;;8.50;5.20;;;13.90;99.90;;;;;;4161790;28;20041;-70
2023/05/22 00:47:52;;;;;;;7.30;4.57;;;13.90;99.90;;;;;;4162430;28;20079;-74
2023/05/22 00:49:53;;;;;;;7.57;4.67;;;13.90;99.90;;;;;;4160646;28;20049;-62
2023/05/22 00:51:55;;;;;;;7.80;5.20;;;13.90;99.90;;;;;;4162339;28;20080;-62
2023/05/22 00:53:56;;;;;;;7.70;4.60;;;13.90;99.90;;;;;;4161388;28;20038;-75
2023/05/22 00:55:58;;;;;;;8.13;5.18;;;13.80;99.90;;;;;;4162326;28;20033;-61
2023/05/22 00:58:06;;;;;;;5.65;4.53;;;13.80;99.90;;;;;;4161281;28;20037;-62
2023/05/22 01:00:12;;;;;;;10.17;4.80;;;13.80;99.90;;;;;;4162228;28;20064;-61
2023/05/22 01:02:15;;;;;;;6.73;4.90;;;13.70;99.90;;;;;;4160617;28;20049;-61
2023/05/22 01:04:17;;;;;;;5.87;4.63;;;13.60;99.90;;;;;;4162582;28;20033;-61
2023/05/22 01:06:20;;;;;;;8.23;4.53;;;13.60;99.90;;;;;;4160171;28;20052;-62
2023/05/22 01:08:21;;;;;;;6.47;4.87;;;13.60;99.90;;;;;;4162122;28;20021;-74
2023/05/22 01:10:22;;;;;;;8.10;4.13;;;13.60;99.90;;;;;;4160859;28;20033;-73
2023/05/22 01:12:54;;;;;;;14.03;5.77;;;13.60;99.90;;;;;;4161350;28;20556;-62
2023/05/22 01:15:11;;;;;;;16.63;5.80;;;13.60;99.90;;;;;;4161018;28;20539;-61
2023/05/22 01:17:38;;;;;;;11.10;4.90;;;13.60;99.90;;;;;;4161749;28;20242;-75
2023/05/22 01:20:05;;;;;;;7.40;4.30;;;13.60;99.90;;;;;;4149017;28;20382;-61
2023/05/22 01:22:41;;;;;;;7.30;4.70;;;13.60;99.90;;;;;;4161698;28;20049;-60
2023/05/22 01:25:08;;;;;;;8.00;3.97;;;13.50;99.90;;;;;;4145036;28;20072;-62
2023/05/22 01:27:09;;;;;;;10.57;3.90;;;13.40;99.90;;;;;;4141306;28;20079;-61
2023/05/22 01:29:13;;;;;;;7.03;4.40;;;13.40;99.90;;;;;;4160319;28;20046;-73
2023/05/22 01:31:23;;;;;;;6.57;4.10;;;13.30;99.90;;;;;;4161444;28;20469;-74
2023/05/22 01:33:27;;;;;;;6.00;4.25;;;13.30;99.90;;;;;;4160753;28;20022;-76
2023/05/22 01:35:30;;;;;;;8.30;4.00;;;13.30;99.90;;;;;;4145472;28;20104;-70
2023/05/22 01:37:32;;;;;;;5.23;3.80;;;13.30;99.90;;;;;;4156785;28;20087;-63
2023/05/22 01:39:33;;;;;;;7.13;4.07;;;13.30;99.90;;;;;;4160478;28;21191;-67
2023/05/22 01:41:35;;;;;;;5.77;3.77;;;13.20;99.90;;;;;;4160790;28;20022;-69
2023/05/22 01:43:36;;;;;;;10.00;3.73;;;13.20;99.90;;;;;;4162024;28;20029;-66
2023/05/22 01:45:38;;;;;;;3.63;2.87;;;13.20;99.90;;;;;;4160414;28;20091;-61
2023/05/22 01:47:39;;;;;;;10.33;3.63;;;13.20;99.90;;;;;;4162021;28;20083;-69
2023/05/22 01:49:41;;;;;;;4.43;3.53;;;13.20;99.90;;;;;;4160499;28;20437;-61
2023/05/22 01:51:56;;;;;;;5.70;3.27;;;13.20;99.90;;;;;;4161185;28;20041;-61
2023/05/22 01:54:09;;;;;;;7.57;3.90;;;13.10;99.90;;;;;;4160470;28;20038;-61
2023/05/22 01:56:17;;;;;;;5.20;3.40;;;13.10;99.90;;;;;;4161859;28;20432;-61
2023/05/22 01:58:43;;;;;;;4.53;3.73;;;13.10;99.90;;;;;;4160579;28;20572;-69
2023/05/22 02:00:46;;;;;;;7.27;3.77;;;13.00;99.90;;;;;;4159460;28;20030;-71
2023/05/22 02:02:52;;;;;;;9.13;4.33;;;13.00;99.90;;;;;;4160542;28;20018;-64
2023/05/22 02:04:59;;;;;;;6.93;3.73;;;13.00;99.90;;;;;;4161372;28;20029;-61
2023/05/22 02:07:01;;;;;;;9.53;4.43;;;12.90;99.90;;;;;;4159579;28;20057;-61
2023/05/22 02:09:04;;;;;;;3.47;3.17;;;12.90;99.90;;;;;;4160594;28;20519;-60
2023/05/22 02:11:06;;;;;;;7.60;3.43;;;12.90;99.90;;;;;;4142314;28;20156;-60
2023/05/22 02:13:08;;;;;;;11.03;3.60;;;12.90;99.90;;;;;;4160810;28;20065;-60
2023/05/22 02:15:09;;;;;;;9.97;4.63;;;12.80;99.90;;;;;;4160341;28;20068;-59
2023/05/22 02:17:11;;;;;;;7.67;4.27;;;12.80;99.90;;;;;;4160468;28;20046;-59
2023/05/22 02:19:14;;;;;;;5.53;3.60;;;12.70;99.90;;;;;;4160358;28;20033;-60
2023/05/22 02:21:15;;;;;;;8.90;3.50;;;12.70;99.90;;;;;;4160726;28;20045;-69
2023/05/22 02:23:16;;;;;;;7.53;3.57;;;12.60;99.90;;;;;;4160515;28;20037;-63
2023/05/22 02:25:17;;;;;;;6.00;3.80;;;12.50;99.90;;;;;;4160472;28;20037;-74
2023/05/22 02:27:18;;;;;;;10.37;3.80;;;12.50;99.90;;;;;;4162626;28;20092;-62
2023/05/22 02:29:19;;;;;;;8.77;3.97;;;12.40;99.90;;;;;;4163111;28;20037;-61
2023/05/22 02:31:20;;;;;;;10.20;4.23;;;12.30;99.90;;;;;;4164853;28;20030;-62
2023/05/22 02:33:22;;;;;;;9.97;3.90;;;12.30;99.90;;;;;;4163433;28;20469;-67
2023/05/22 02:35:23;;;;;;;7.47;4.57;;;12.30;99.90;;;;;;4163931;28;20095;-61
2023/05/22 02:37:24;;;;;;;7.10;4.07;;;12.30;99.90;;;;;;4163472;28;20099;-62
2023/05/22 02:39:29;;;;;;;10.47;3.73;;;12.30;99.90;;;;;;4164328;28;20045;-72
2023/05/22 02:41:30;;;;;;;7.87;4.13;;;12.30;99.90;;;;;;4163483;28;20038;-59
2023/05/22 02:43:31;;;;;;;10.67;4.33;;;12.30;99.90;;;;;;4164633;28;20030;-73
2023/05/22 02:45:33;;;;;;;14.77;4.30;;;12.30;99.90;;;;;;4162863;28;20049;-64
2023/05/22 02:47:34;;;;;;;11.13;4.43;;;12.30;99.90;;;;;;4163157;28;20112;-70
2023/05/22 02:49:35;;;;;;;7.17;3.97;;;12.40;99.90;;;;;;4163057;28;20045;-75
2023/05/22 02:51:36;;;;;;;8.23;4.30;;;12.40;99.90;;;;;;4162957;28;20053;-61
2023/05/22 02:53:40;;;;;;;13.23;5.40;;;12.40;99.90;;;;;;4163077;28;20115;-61
2023/05/22 02:55:41;;;;;;;11.27;4.50;;;12.50;99.90;;;;;;4163595;28;20536;-62
2023/05/22 02:57:42;;;;;;;9.77;4.77;;;12.60;99.90;;;;;;4163545;28;20119;-61
2023/05/22 02:59:43;;;;;;;11.17;5.03;;;12.60;99.90;;;;;;4162389;28;20045;-61
2023/05/22 03:01:47;;;;;;;15.90;5.60;;;12.70;99.90;;;;;;4164113;28;20092;-65
2023/05/22 03:03:49;;;;;;;13.27;5.17;;;12.90;99.90;;;;;;4162949;28;20080;-76
2023/05/22 03:05:53;;;;;;;6.67;4.47;;;13.00;99.90;;;;;;4164046;28;20030;-62
2023/05/22 03:07:54;;;;;;;6.67;3.97;;;13.20;99.90;;;;;;4163186;28;20030;-73
2023/05/22 03:09:55;;;;;;;8.67;4.90;;;13.30;99.90;;;;;;4163620;28;20300;-61
2023/05/22 03:11:57;;;;;;;7.70;5.67;;;13.40;99.90;;;;;;4162802;28;20059;-69
2023/05/22 03:13:58;;;;;;;7.60;4.90;;;13.40;99.90;;;;;;4164058;28;20038;-69
2023/05/22 03:15:59;;;;;;;9.47;5.43;;;13.40;99.90;;;;;;4163166;28;20469;-71
2023/05/22 03:18:01;;;;;;;10.70;5.60;;;13.50;99.90;;;;;;4162973;28;20041;-76
2023/05/22 03:20:04;;;;;;;10.73;5.67;;;13.70;99.90;;;;;;4162972;28;20068;-74
2023/05/22 03:22:05;;;;;;;7.90;6.07;;;13.70;99.90;;;;;;4163150;28;20049;-71
2023/05/22 03:24:06;;;;;;;7.20;5.47;;;13.60;99.90;;;;;;4162395;28;20033;-66
2023/05/22 03:26:08;;;;;;;8.70;6.90;;;13.70;99.90;;;;;;4162680;28;20079;-68
2023/05/22 03:28:09;;;;;;;9.30;6.07;;;13.80;99.90;;;;;;4162767;28;20042;-68
2023/05/22 03:30:10;;;;;;;8.00;6.50;;;13.80;99.90;;;;;;4162770;28;20057;-62
2023/05/22 03:32:12;;;;;;;11.93;6.47;;;13.90;99.90;;;;;;4163364;28;20087;-71
2023/05/22 03:34:13;;;;;;;9.83;6.50;;;14.10;99.90;;;;;;4162350;28;20417;-72
2023/05/22 03:36:14;;;;;;;10.70;6.90;;;14.50;99.90;;;;;;4163381;28;20025;-68
2023/05/22 03:38:16;;;;;;;11.93;6.93;;;14.80;99.90;;;;;;4161640;28;20501;-60
2023/05/22 03:40:17;;;;;;;16.43;9.50;;;15.20;99.90;;;;;;4162797;28;20083;-69
2023/05/22 03:42:18;;;;;;;16.33;9.77;;;15.50;99.90;;;;;;4160624;28;20041;-71
2023/05/22 03:44:19;;;;;;;15.07;9.57;;;15.60;99.90;;;;;;4163241;28;20041;-61
2023/05/22 03:46:20;;;;;;;24.92;9.43;;;15.40;99.90;;;;;;4161713;28;20105;-61
2023/05/22 03:48:22;;;;;;;19.45;10.02;;;15.20;99.90;;;;;;4163259;28;20091;-61
2023/05/22 03:50:23;;;;;;;17.23;9.27;;;15.10;99.90;;;;;;4161524;28;20614;-60
2023/05/22 03:52:24;;;;;;;15.02;7.65;;;15.10;99.90;;;;;;4162280;28;20374;-71
2023/05/22 03:54:25;;;;;;;11.25;6.57;;;15.10;99.90;;;;;;4162706;28;20021;-71
2023/05/22 03:56:27;;;;;;;17.17;7.88;;;15.10;99.90;;;;;;4162277;28;20088;-67
2023/05/22 03:58:28;;;;;;;15.35;7.43;;;15.00;99.90;;;;;;4162111;28;20489;-65
2023/05/22 04:00:30;;;;;;;9.30;7.35;;;14.90;99.90;;;;;;4151608;28;20560;-75
2023/05/22 04:02:31;;;;;;;14.45;7.30;;;14.90;99.90;;;;;;4145744;28;20054;-73
2023/05/22 04:04:37;;;;;;;12.57;7.20;;;14.70;99.90;;;;;;4147582;28;20037;-79
2023/05/22 04:06:44;;;;;;;13.27;7.20;;;14.60;99.90;;;;;;4162768;28;20041;-68
2023/05/22 04:08:45;;;;;;;11.43;6.80;;;14.60;99.90;;;;;;4144825;28;20038;-69
2023/05/22 04:10:47;;;;;;;9.73;7.57;;;14.50;99.90;;;;;;4155563;28;20046;-65
2023/05/22 04:12:49;;;;;;;9.65;7.13;;;14.50;99.90;;;;;;4160933;28;20107;-74
2023/05/22 04:14:50;;;;;;;12.63;6.30;;;15.00;99.90;;;;;;4163065;28;20083;-69
2023/05/22 04:16:51;;;;;;;11.30;6.38;;;15.50;99.90;;;;;;4161557;28;20037;-73
2023/05/22 04:18:52;;;;;;;6.70;6.03;;;16.10;99.90;;;;;;4162341;28;20041;-74
2023/05/22 04:20:53;;;;;;;7.97;6.07;;;16.90;99.90;;;;;;4161419;28;20099;-72
2023/05/22 04:22:55;;;;;;;11.35;6.00;;;17.50;99.90;;;;;;4162992;28;20037;-65
2023/05/22 04:24:56;;;;;;;8.68;5.57;;;17.80;99.90;;;;;;4161857;28;20428;-72
2023/05/22 04:26:59;;;;;;;10.38;5.90;;;17.50;99.90;;;;;;4162042;28;20445;-66
2023/05/22 04:29:01;;;;;;;12.82;6.15;;;17.20;99.90;;;;;;4162030;28;20025;-70
2023/05/22 04:31:05;;;;;;;15.80;6.88;;;16.60;99.90;;;;;;4162284;28;20033;-68
2023/05/22 04:33:07;;;;;;;14.07;7.50;;;16.50;99.90;;;;;;4161939;28;20029;-64
2023/05/22 04:35:11;;;;;;;13.30;7.47;;;16.70;99.90;;;;;;4162029;28;20051;-70
2023/05/22 04:37:13;;;;;;;10.50;7.00;;;17.00;99.90;;;;;;4162235;28;20022;-67
2023/05/22 04:39:15;;;;;;;17.25;7.80;;;17.30;99.90;;;;;;4160388;28;20099;-68
2023/05/22 04:41:16;;;;;;;14.27;7.28;;;18.00;99.90;;;;;;4162096;28;20095;-67
2023/05/22 04:43:18;;;;;;;11.38;7.40;;;18.60;99.90;;;;;;4145207;28;20054;-64
2023/05/22 04:45:20;;;;;;;9.57;6.97;;;18.90;99.90;;;;;;4161184;28;20543;-73
2023/05/22 04:47:21;;;;;;;12.40;7.18;;;19.00;99.90;;;;;;4160448;28;20099;-73
2023/05/22 04:49:23;;;;;;;12.25;7.05;;;19.00;99.90;;;;;;4161868;28;20100;-68
2023/05/22 04:51:24;;;;;;;13.38;7.60;;;19.10;99.90;;;;;;4143237;28;20441;-69
2023/05/22 04:53:26;;;;;;;10.23;7.20;;;19.50;99.90;;;;;;4160908;28;20087;-69
2023/05/22 04:55:27;;;;;;;11.05;6.93;;;19.70;99.90;;;;;;4160841;28;20091;-70
2023/05/22 04:57:28;;;;;;;7.25;6.25;;;19.70;99.90;;;;;;4162108;28;20448;-70
2023/05/22 04:59:32;;;;;;;9.95;5.50;;;20.10;99.90;;;;;;4160501;28;20107;-68
2023/05/22 05:01:33;;;;;;;15.18;5.72;;;20.30;99.90;;;;;;4160884;28;20075;-74
2023/05/22 05:03:35;;;;;;;20.55;6.43;;;20.40;99.90;;;;;;4161445;28;20128;-68
2023/05/22 05:05:36;;;;;;;10.10;5.95;;;20.50;99.90;;;;;;4160598;28;20088;-70
2023/05/22 05:07:38;;;;;;;11.35;4.97;;;20.70;99.90;;;;;;4161668;28;20083;-70
2023/05/22 05:09:39;;;;;;;9.25;4.18;;;20.80;99.90;;;;;;4161023;28;20025;-70
2023/05/22 05:11:40;;;;;;;4.85;4.03;;;21.30;99.90;;;;;;4161621;28;20080;-75
2023/05/22 05:13:41;;;;;;;6.70;3.97;;;21.20;99.90;;;;;;4160777;28;20425;-72
2023/05/22 05:15:42;;;;;;;6.70;3.72;;;21.20;99.90;;;;;;4161768;28;20087;-71
2023/05/22 05:17:44;;;;;;;3.67;3.30;;;20.90;99.90;;;;;;4160807;28;20071;-71
2023/05/22 05:19:45;;;;;;;6.80;3.05;;;20.40;99.90;;;;;;4162127;28;20033;-68
2023/05/22 05:21:49;;;;;;;5.47;3.70;;;20.30;99.90;;;;;;4160418;28;20088;-73
2023/05/22 05:23:50;;;;;;;6.45;3.33;;;19.80;99.90;;;;;;4161081;28;20375;-64
2023/05/22 05:25:51;;;;;;;5.43;2.50;;;20.20;99.90;;;;;;4160984;28;20029;-74
2023/05/22 05:27:53;;;;;;;6.90;2.90;;;20.60;99.90;;;;;;4161986;28;20095;-74
2023/05/22 05:29:54;;;;;;;9.18;4.55;;;20.80;99.90;;;;;;4160797;28;20366;-76
2023/05/22 05:31:55;;;;;;;5.13;3.03;;;20.10;99.90;;;;;;4161789;28;20037;-76
2023/05/22 05:33:57;;;;;;;4.97;2.65;;;19.30;99.90;;;;;;4161009;28;20033;-72
2023/05/22 05:35:58;;;;;;;6.85;2.88;;;19.20;99.90;;;;;;4161110;28;20089;-72
2023/05/22 05:37:59;;;;;;;5.00;2.47;;;19.50;99.90;;;;;;4160906;28;20029;-74
2023/05/22 05:40:00;;;;;;;8.98;3.03;;;20.00;99.90;;;;;;4160649;28;20071;-72
2023/05/22 05:42:03;;;;;;;4.80;2.60;;;20.00;99.90;;;;;;4161092;28;20088;-69
2023/05/22 05:44:04;;;;;;;4.97;2.75;;;20.00;99.90;;;;;;4142297;28;20042;-67
2023/05/22 05:46:05;;;;;;;10.23;2.60;;;19.80;99.90;;;;;;4160576;28;20033;-74
2023/05/22 05:48:06;;;;;;;7.03;2.22;;;19.40;99.90;;;;;;4159461;28;20111;-73
2023/05/22 05:50:08;;;;;;;1.95;1.77;;;19.40;99.90;;;;;;4162032;28;20084;-74
2023/05/22 05:52:09;;;;;;;4.72;1.90;;;19.10;99.90;;;;;;4160246;28;20033;-78
2023/05/22 05:54:10;;;;;;;5.45;2.28;;;18.80;99.90;;;;;;4161427;28;20075;-71
2023/05/22 05:56:11;;;;;;;8.18;2.45;;;18.70;99.90;;;;;;4159825;28;20046;-75
2023/05/22 05:58:13;;;;;;;4.28;2.28;;;18.60;99.90;;;;;;4160977;28;20119;-75
2023/05/22 06:00:14;;;;;;;7.07;2.42;;;18.50;99.90;;;;;;4160175;28;20025;-74
2023/05/22 06:02:15;;;;;;;4.18;2.13;;;19.00;99.90;;;;;;4160482;28;20079;-75
2023/05/22 06:04:16;;;;;;;7.03;2.97;;;18.90;99.90;;;;;;4160076;28;20367;-76
2023/05/22 06:06:18;;;;;;;3.03;1.90;;;19.30;99.90;;;;;;4160814;28;20018;-77
2023/05/22 06:08:20;;;;;;;4.88;2.33;;;19.40;99.90;;;;;;4142703;28;20050;-77
2023/05/22 06:10:21;;;;;;;4.07;2.00;;;19.20;99.90;;;;;;4160119;28;20046;-74
2023/05/22 06:12:23;;;;;;;7.80;2.08;;;19.10;99.90;;;;;;4161143;28;20064;-77
2023/05/22 06:14:24;;;;;;;4.53;1.90;;;19.20;99.90;;;;;;4159153;28;20041;-76
2023/05/22 06:16:25;;;;;;;3.58;1.90;;;19.30;99.90;;;;;;4160314;28;20371;-74
2023/05/22 06:18:26;;;;;;;7.22;2.78;;;19.30;99.90;;;;;;4159948;28;20033;-73
2023/05/22 06:20:27;;;;;;;7.22;2.75;;;19.20;99.90;;;;;;4161607;28;20370;-73
2023/05/22 06:22:28;;;;;;;5.47;2.50;;;19.20;99.90;;;;;;4159172;28;20041;-75
2023/05/22 06:24:31;;;;;;;7.32;2.67;;;19.20;99.90;;;;;;4161208;28;20056;-76
2023/05/22 06:26:32;;;;;;;10.73;2.67;;;19.30;99.90;;;;;;4159725;28;20018;-76
2023/05/22 06:28:33;;;;;;;5.35;2.25;;;19.40;99.90;;;;;;4160647;28;20465;-72
2023/05/22 06:30:35;;;;;;;4.13;2.13;;;19.30;99.90;;;;;;4159285;28;20037;-76
2023/05/22 06:32:36;;;;;;;7.50;2.28;;;19.20;99.90;;;;;;4160288;28;20064;-73
2023/05/22 06:34:37;;;;;;;3.75;1.90;;;19.10;99.90;;;;;;4160311;28;20083;-76
2023/05/22 06:36:38;;;;;;;6.57;2.58;;;19.20;99.90;;;;;;4160702;28;20033;-75
2023/05/22 06:38:39;;;;;;;6.32;2.58;;;19.40;99.90;;;;;;4160750;28;20079;-74
2023/05/22 06:40:40;;;;;;;4.38;2.30;;;19.80;99.90;;;;;;4160632;28;20025;-72
2023/05/22 06:42:43;;;;;;;6.90;2.22;;;20.00;99.90;;;;;;4160863;28;20037;-66
2023/05/22 06:44:44;;;;;;;4.22;2.55;;;19.90;99.60;;;;;;4159534;28;20084;-78
2023/05/22 06:46:45;;;;;;;6.97;2.25;;;19.80;99.70;;;;;;4161117;28;20029;-76
2023/05/22 06:48:46;;;;;;;5.70;1.88;;;19.80;99.90;;;;;;4160243;28;20034;-71
2023/05/22 06:50:47;;;;;;;3.17;2.08;;;20.00;99.90;;;;;;4160715;28;20447;-75
2023/05/22 06:52:48;;;;;;;6.45;2.13;;;19.90;99.80;;;;;;4160127;28;20034;-78
2023/05/22 06:54:49;;;;;;;5.28;1.85;;;19.70;99.90;;;;;;4160361;28;20111;-72
2023/05/22 06:56:50;;;;;;;3.03;1.88;;;19.70;99.90;;;;;;4160087;28;20018;-65
2023/05/22 06:58:52;;;;;;;5.50;2.92;;;19.70;99.90;;;;;;4160824;28;20481;-72
2023/05/22 07:00:54;;;;;;;6.82;2.67;;;19.90;99.60;;;;;;4159838;28;20381;-73
2023/05/22 07:02:55;;;;;;;5.63;1.92;;;20.10;99.30;;;;;;4160462;28;20049;-75
2023/05/22 07:04:56;;;;;;;3.80;1.85;;;20.20;99.00;;;;;;4160015;28;20087;-62
2023/05/22 07:06:57;;;;;;;5.65;2.22;;;20.30;98.70;;;;;;4159659;28;20049;-63
2023/05/22 07:08:58;;;;;;;4.53;2.15;;;20.20;98.50;;;;;;4160019;28;20091;-74
2023/05/22 07:11:00;;;;;;;4.68;1.80;;;20.30;98.40;;;;;;4160251;28;20095;-76
2023/05/22 07:13:01;;;;;;;5.00;1.70;;;20.40;98.40;;;;;;4161364;28;20029;-68
2023/05/22 07:15:03;;;;;;;6.72;2.05;;;20.50;98.20;;;;;;4162896;28;20375;-61
2023/05/22 07:17:05;;;;;;;2.70;1.70;;;20.60;98.00;;;;;;4162768;28;20100;-63
2023/05/22 07:19:07;;;;;;;2.72;1.77;;;20.60;97.70;;;;;;4162023;28;20109;-66
2023/05/22 07:21:08;;;;;;;4.60;1.90;;;20.60;97.70;;;;;;4163316;28;20069;-74
2023/05/22 07:23:09;;;;;;;4.88;2.08;;;20.80;97.60;;;;;;4162515;28;20037;-66
2023/05/22 07:25:10;;;;;;;4.07;1.95;;;20.80;97.30;;;;;;4163843;28;20026;-60
2023/05/22 07:27:12;;;;;;;5.90;2.08;;;20.80;97.40;;;;;;4162602;28;20064;-61
2023/05/22 07:29:13;;;;;;;4.50;1.73;;;20.90;97.30;;;;;;4163168;28;20041;-65
2023/05/22 07:31:15;;;;;;;2.75;1.63;;;21.20;97.10;;;;;;4162030;28;20046;-66
2023/05/22 07:33:16;;;;;;;3.90;1.42;;;21.40;96.70;;;;;;4163679;28;20037;-70
2023/05/22 07:35:17;;;;;;;5.15;2.03;;;21.30;96.10;;;;;;4161930;28;20131;-67
2023/05/22 07:37:18;;;;;;;5.47;1.20;;;21.30;94.60;;;;;;4162298;28;20041;-63
2023/05/22 07:39:19;;;;;;;5.50;1.40;;;21.40;93.50;;;;;;4162655;28;20021;-72
2023/05/22 07:41:21;;;;;;;3.90;1.60;;;21.40;92.70;;;;;;4162125;28;20041;-62
2023/05/22 07:43:22;;;;;;;4.35;1.85;;;21.40;91.70;;;;;;4163225;28;20080;-61
2023/05/22 07:45:25;;;;;;;4.85;1.17;;;21.30;91.80;;;;;;4161706;28;20103;-61
2023/05/22 07:47:26;;;;;;;5.78;1.35;;;21.30;92.00;;;;;;4163192;28;20033;-64
2023/05/22 07:49:27;;;;;;;2.47;1.10;;;21.60;91.80;;;;;;4161574;28;20041;-62
2023/05/22 07:51:30;;;;;;;2.25;1.02;;;21.60;91.40;;;;;;4163548;28;20428;-62
2023/05/22 07:53:31;;;;;;;3.20;1.42;;;21.70;91.30;;;;;;4161997;28;20093;-61
2023/05/22 07:55:32;;;;;;;3.78;1.23;;;21.80;91.50;;;;;;4163189;28;20025;-74
2023/05/22 07:57:35;;;;;;;2.17;1.70;;;22.00;91.00;;;;;;4162020;28;20037;-69
2023/05/22 07:59:36;;;;;;;5.43;1.33;;;22.00;90.60;;;;;;4162790;28;20115;-75
2023/05/22 08:01:39;;;;;;;4.03;1.45;;;22.00;90.50;;;;;;4161773;28;20425;-70
2023/05/22 08:03:40;;;;;;;4.97;1.30;;;22.10;90.60;;;;;;4162530;28;20111;-68
2023/05/22 08:05:41;;;;;;;4.85;1.27;;;22.30;90.50;;;;;;4161982;28;20474;-73
2023/05/22 08:07:42;;;;;;;8.25;1.48;;;22.30;90.00;;;;;;4161945;28;20053;-71
2023/05/22 08:09:45;;;;;;;5.05;1.40;;;22.10;89.70;;;;;;4162209;28;20104;-77
2023/05/22 08:11:47;;;;;;;3.30;1.27;;;22.10;89.70;;;;;;4161855;28;20088;-77
2023/05/22 08:13:48;;;;;;;3.60;1.42;;;22.00;89.60;;;;;;4162546;28;20087;-61
2023/05/22 08:15:49;;;;;;;7.03;1.48;;;22.20;90.00;;;;;;4162185;28;20084;-64
2023/05/22 08:17:50;;;;;;;1.67;1.20;;;22.30;89.80;;;;;;4162728;28;20025;-61
2023/05/22 08:19:51;;;;;;;2.67;1.20;;;22.40;89.40;;;;;;4161977;28;20080;-77
2023/05/22 08:21:56;;;;;;;1.58;1.15;;;22.30;88.90;;;;;;4163220;28;20470;-73
2023/05/22 08:23:57;;;;;;;2.63;1.40;;;22.60;89.30;;;;;;4161737;28;20018;-68
2023/05/22 08:25:59;;;;;;;2.92;1.80;;;22.80;88.40;;;;;;4162217;28;20021;-69
2023/05/22 08:28:00;;;;;;;2.35;1.40;;;23.00;87.50;;;;;;4160826;28;20490;-61
2023/05/22 08:30:03;;;;;;;5.50;1.50;;;23.00;87.20;;;;;;4162116;28;20041;-73
2023/05/22 08:32:04;;;;;;;2.72;1.38;;;22.90;87.00;;;;;;4143611;28;20049;-75
2023/05/22 08:34:06;;;;;;;7.90;1.20;;;22.80;86.70;;;;;;4162989;28;20092;-76
2023/05/22 08:36:07;;;;;;;2.78;1.10;;;22.60;86.80;;;;;;4161521;28;20026;-70
2023/05/22 08:38:08;;;;;;;2.72;1.48;;;22.40;87.30;;;;;;4162693;28;20056;-76
2023/05/22 08:40:13;;;;;;;1.85;1.52;;;22.40;87.10;;;;;;4160957;28;20041;-77
2023/05/22 08:42:15;;;;;;;2.33;1.40;;;22.60;86.90;;;;;;4161327;28;20037;-76
2023/05/22 08:44:18;;;;;;;2.40;1.13;;;22.60;86.70;;;;;;4161163;28;20092;-78
2023/05/22 08:46:25;;;;;;;4.63;1.38;;;22.80;86.40;;;;;;4161446;28;20374;-77
2023/05/22 08:48:30;;;;;;;3.35;1.35;;;23.00;85.20;;;;;;4162087;28;20045;-78
2023/05/22 08:50:33;;;;;;;4.80;1.63;;;23.20;85.20;;;;;;4162004;28;20162;-78
2023/05/22 08:52:45;;;;;;;8.57;1.60;;;23.50;85.90;;;;;;4162105;28;20029;-68
2023/05/22 08:54:54;;;;;;;3.45;1.70;;;23.70;84.60;;;;;;4160493;28;20049;-78
2023/05/22 08:56:56;;;;;;;3.40;1.58;;;23.60;84.00;;;;;;4161906;28;20026;-77
2023/05/22 08:59:00;;;;;;;4.18;1.35;;;23.60;84.10;;;;;;4161134;28;20034;-78
2023/05/22 09:01:01;;;;;;;3.47;1.35;;;23.50;84.40;;;;;;4161933;28;20025;-77
2023/05/22 09:03:05;;;;;;;3.72;1.60;;;23.60;84.50;;;;;;4159979;28;20042;-75
2023/05/22 09:05:07;;;;;;;3.97;1.80;;;23.50;83.90;;;;;;4162054;28;20079;-74
2023/05/22 09:07:09;;;;;;;2.50;1.00;;;23.50;84.70;;;;;;4159700;28;20088;-78
2023/05/22 09:09:10;;;;;;;3.42;1.60;;;23.30;83.00;;;;;;4160697;28;20049;-78
2023/05/22 09:11:12;;;;;;;4.80;1.65;;;23.20;83.10;;;;;;4160370;28;20034;-71
2023/05/22 09:13:27;;;;;;;6.13;1.27;;;23.20;83.40;;;;;;4162035;28;20021;-77
2023/05/22 09:15:30;;;;;;;5.57;1.58;;;23.40;83.70;;;;;;4160858;28;20582;-76
2023/05/22 09:17:31;;;;;;;3.13;1.83;;;23.40;83.90;;;;;;4161867;28;20079;-78
2023/05/22 09:19:32;;;;;;;4.25;1.52;;;23.50;83.20;;;;;;4160764;28;20037;-76
2023/05/22 09:21:36;;;;;;;3.08;1.50;;;23.20;82.90;;;;;;4161170;28;20111;-73
2023/05/22 09:23:37;;;;;;;5.22;1.48;;;23.10;82.70;;;;;;4159576;28;20038;-78
2023/05/22 09:25:38;;;;;;;3.33;1.63;;;23.10;82.90;;;;;;4161384;28;20088;-79
2023/05/22 09:27:43;;;;;;;3.08;1.30;;;23.10;83.20;;;;;;4159989;28;20111;-74
2023/05/22 09:29:49;;;;;;;3.78;1.70;;;23.00;83.00;;;;;;4161350;28;20033;-74
2023/05/22 09:31:50;;;;;;;3.13;1.25;;;22.80;82.60;;;;;;4161068;28;20064;-79
2023/05/22 09:33:52;;;;;;;5.43;1.35;;;22.60;83.30;;;;;;4161043;28;20128;-77
2023/05/22 09:35:54;;;;;;;2.80;1.42;;;22.60;83.60;;;;;;4143324;28;20017;-77
2023/05/22 09:37:56;;;;;;;4.00;2.03;;;22.40;84.10;;;;;;4160817;28;20095;-75
2023/05/22 09:39:57;;;;;;;4.20;2.13;;;22.50;84.80;;;;;;4160886;28;20030;-73
2023/05/22 09:42:00;;;;;;;2.83;1.45;;;22.50;84.40;;;;;;4160421;28;20033;-78
2023/05/22 09:44:15;;;;;;;4.95;1.88;;;22.60;84.60;;;;;;4161511;28;20025;-73
2023/05/22 09:46:16;;;;;;;3.13;1.15;;;22.60;83.80;;;;;;4142625;28;20084;-74
2023/05/22 09:48:18;;;;;;;2.92;1.35;;;22.60;83.90;;;;;;4161183;28;20092;-78
2023/05/22 09:50:19;;;;;;;2.70;1.70;;;22.50;84.40;;;;;;4159142;28;20049;-78
2023/05/22 09:52:22;;;;;;;4.00;1.75;;;22.60;84.60;;;;;;4161218;28;20092;-77
2023/05/22 09:54:25;;;;;;;3.40;1.25;;;22.60;84.70;;;;;;4160159;28;20038;-75
2023/05/22 09:56:27;;;;;;;5.10;1.42;;;22.80;85.00;;;;;;4160632;28;20555;-61
2023/05/22 09:58:32;;;;;;;3.25;1.58;;;22.90;85.10;;;;;;4160274;28;20025;-72
2023/05/22 10:00:34;;;;;;;4.10;1.48;;;22.90;84.20;;;;;;4161359;28;20022;-60
2023/05/22 10:02:36;;;;;;;2.80;1.88;;;23.00;84.20;;;;;;4159562;28;20041;-80
2023/05/22 10:04:40;;;;;;;6.93;1.60;;;23.00;84.00;;;;;;4143622;28;20054;-61
2023/05/22 10:06:45;;;;;;;5.35;1.83;;;23.10;84.80;;;;;;4159901;28;20477;-76
2023/05/22 10:08:53;;;;;;;3.67;1.30;;;23.20;84.40;;;;;;4160942;28;20033;-62
2023/05/22 10:10:54;;;;;;;4.20;1.67;;;23.20;84.00;;;;;;4159291;28;20084;-64
2023/05/22 10:13:00;;;;;;;3.80;1.55;;;23.10;84.40;;;;;;4160605;28;20022;-60
2023/05/22 10:15:02;;;;;;;3.78;1.45;;;23.10;84.30;;;;;;4160068;28;20045;-79
2023/05/22 10:17:05;;;;;;;2.90;1.60;;;23.10;83.20;;;;;;4160513;28;20029;-60
2023/05/22 10:19:07;;;;;;;6.30;2.13;;;23.00;83.20;;;;;;4160629;28;20471;-61
2023/05/22 10:21:08;;;;;;;5.32;1.60;;;23.00;83.40;;;;;;4159196;28;20440;-77
2023/05/22 10:23:10;;;;;;;7.03;1.75;;;23.00;83.90;;;;;;4160992;28;20075;-62
2023/05/22 10:25:12;;;;;;;4.53;1.52;;;23.10;83.40;;;;;;4159306;28;20033;-60
2023/05/22 10:27:13;;;;;;;3.70;1.42;;;23.20;83.50;;;;;;4161324;28;20029;-60
2023/05/22 10:29:19;;;;;;;4.97;1.48;;;23.50;83.60;;;;;;4159999;28;20041;-74
2023/05/22 10:31:31;;;;;;;3.30;1.60;;;23.60;83.20;;;;;;4159525;28;20560;-77
2023/05/22 10:33:40;;;;;;;3.20;1.25;;;23.60;82.50;;;;;;4159743;28;20407;-60
2023/05/22 10:36:03;;;;;;;3.67;1.73;;;23.60;83.20;;;;;;4161077;28;20025;-61
2023/05/22 10:38:55;;;;;;;4.85;1.50;;;23.70;81.50;;;;;;4159771;28;20616;-75